createdAt,value
2022-11-17T00:00:14.183Z,894
2022-11-17T00:05:44.742Z,892
2022-11-17T00:11:15.314Z,880
2022-11-17T00:16:45.772Z,870
2022-11-17T00:22:16.350Z,869
2022-11-17T00:27:46.973Z,862
2022-11-17T00:33:17.301Z,868
2022-11-17T00:38:48.055Z,872
2022-11-17T00:44:18.638Z,870
2022-11-17T00:49:48.996Z,854
2022-11-17T00:55:18.533Z,850
2022-11-17T01:00:49.080Z,832
2022-11-17T01:06:19.434Z,811
2022-11-17T01:11:48.932Z,801
2022-11-17T01:17:19.464Z,787
2022-11-17T01:22:49.893Z,778
2022-11-17T01:28:20.506Z,766
2022-11-17T01:33:51.206Z,758
2022-11-17T01:39:20.589Z,740
2022-11-17T01:44:51.054Z,738
2022-11-17T01:50:21.694Z,744
2022-11-17T01:55:52.131Z,735
2022-11-17T02:01:22.751Z,733
2022-11-17T02:06:53.383Z,728
2022-11-17T02:12:23.691Z,730
2022-11-17T02:17:53.279Z,720
2022-11-17T02:24:29.857Z,715
2022-11-17T02:30:00.307Z,717
2022-11-17T02:35:30.906Z,717
2022-11-17T02:41:01.531Z,720
2022-11-17T02:46:31.968Z,735
2022-11-17T02:52:02.476Z,732
2022-11-17T02:57:33.084Z,735
2022-11-17T03:03:03.656Z,747
2022-11-17T03:08:34.132Z,751
2022-11-17T03:14:04.602Z,756
2022-11-17T03:19:34.099Z,760
2022-11-17T03:25:04.545Z,774
2022-11-17T03:30:37.498Z,778
2022-11-17T03:36:04.529Z,783
2022-11-17T03:41:35.014Z,794
2022-11-17T03:47:05.595Z,806
2022-11-17T03:52:36.090Z,812
2022-11-17T03:58:06.571Z,822
2022-11-17T04:03:37.402Z,828
2022-11-17T04:09:07.658Z,839
2022-11-17T04:14:38.120Z,842
2022-11-17T04:20:07.730Z,846
2022-11-17T04:25:38.116Z,846
2022-11-17T04:31:08.574Z,848
2022-11-17T04:36:38.177Z,856
2022-11-17T04:42:08.540Z,862
2022-11-17T04:47:38.035Z,869
2022-11-17T04:53:08.664Z,869
2022-11-17T04:58:38.979Z,867
2022-11-17T05:04:08.465Z,866
2022-11-17T05:09:39.078Z,862
2022-11-17T05:15:09.408Z,862
2022-11-17T05:20:40.024Z,866
2022-11-17T05:26:10.606Z,882
2022-11-17T05:31:40.006Z,884
2022-11-17T05:37:10.466Z,894
2022-11-17T05:42:41.069Z,892
2022-11-17T05:48:11.542Z,893
2022-11-17T05:53:42.006Z,908
2022-11-17T05:59:11.647Z,867
2022-11-17T06:04:42.155Z,826
2022-11-17T06:10:12.459Z,793
2022-11-17T06:15:43.065Z,759
2022-11-17T06:21:14.016Z,733
2022-11-17T06:26:44.052Z,713
2022-11-17T06:32:14.760Z,683
2022-11-17T06:37:45.128Z,660
2022-11-17T06:43:15.626Z,640
2022-11-17T06:48:46.346Z,629
2022-11-17T06:54:16.820Z,616
2022-11-17T06:59:47.411Z,615
2022-11-17T07:05:18.130Z,613
2022-11-17T07:10:49.533Z,623
2022-11-17T07:16:23.255Z,622
2022-11-17T07:21:48.354Z,629
2022-11-17T07:27:18.793Z,621
2022-11-17T07:32:53.400Z,619
2022-11-17T07:38:18.893Z,611
2022-11-17T07:43:49.234Z,622
2022-11-17T07:49:19.878Z,615
2022-11-17T07:54:50.482Z,609
2022-11-17T08:00:19.872Z,614
2022-11-17T08:05:50.350Z,609
2022-11-17T08:11:20.924Z,604
2022-11-17T08:16:51.395Z,605
2022-11-17T08:22:21.881Z,598
2022-11-17T08:27:52.483Z,599
2022-11-17T08:33:21.842Z,595
2022-11-17T08:38:52.301Z,594
2022-11-17T08:44:22.824Z,589
2022-11-17T08:49:52.409Z,587
2022-11-17T08:55:22.819Z,582
2022-11-17T09:00:52.377Z,583
2022-11-17T09:06:22.731Z,580
2022-11-17T09:11:53.327Z,579
2022-11-17T09:17:23.923Z,572
2022-11-17T09:22:54.298Z,575
2022-11-17T09:28:24.892Z,570
2022-11-17T09:33:59.317Z,570
2022-11-17T09:39:25.830Z,564
2022-11-17T09:44:55.317Z,563
2022-11-17T09:50:25.836Z,564
2022-11-17T09:55:56.303Z,560
2022-11-17T10:01:26.991Z,554
2022-11-17T10:06:57.612Z,553
2022-11-17T10:12:27.951Z,557
2022-11-17T10:17:58.556Z,549
2022-11-17T10:23:29.060Z,547
2022-11-17T10:29:02.781Z,543
2022-11-17T10:34:34.141Z,543
2022-11-17T10:40:00.597Z,544
2022-11-17T10:45:30.064Z,542
2022-11-17T10:51:00.523Z,546
2022-11-17T10:56:31.023Z,539
2022-11-17T11:02:00.535Z,543
2022-11-17T11:07:31.072Z,540
2022-11-17T11:13:01.549Z,536
2022-11-17T11:18:32.108Z,538
2022-11-17T11:24:02.584Z,535
2022-11-17T11:29:33.132Z,534
2022-11-17T11:35:03.682Z,530
2022-11-17T11:40:34.149Z,535
2022-11-17T11:46:04.617Z,536
2022-11-17T11:51:35.200Z,526
2022-11-17T11:57:05.792Z,525
2022-11-17T12:02:36.515Z,531
2022-11-17T12:08:10.657Z,533
2022-11-17T12:13:41.786Z,533
2022-11-17T12:19:07.963Z,532
2022-11-17T12:24:38.537Z,529
2022-11-17T12:30:09.046Z,532
2022-11-17T12:35:39.619Z,534
2022-11-17T12:41:10.083Z,532
2022-11-17T12:46:40.562Z,532
2022-11-17T12:52:10.093Z,531
2022-11-17T12:57:40.644Z,528
2022-11-17T13:03:11.103Z,530
2022-11-17T13:08:41.966Z,528
2022-11-17T13:14:12.873Z,532
2022-11-17T13:19:42.786Z,531
2022-11-17T13:25:12.362Z,529
2022-11-17T13:30:42.864Z,528
2022-11-17T13:36:13.241Z,521
2022-11-17T13:41:42.752Z,519
2022-11-17T13:47:16.507Z,524
2022-11-17T13:52:46.917Z,520
2022-11-17T13:58:19.952Z,519
2022-11-17T14:03:43.647Z,523
2022-11-17T14:09:13.131Z,517
2022-11-17T14:14:43.631Z,518
2022-11-17T14:20:14.187Z,519
2022-11-17T14:25:43.585Z,517
2022-11-17T14:31:14.066Z,525
2022-11-17T14:36:44.553Z,521
2022-11-17T14:42:14.008Z,521
2022-11-17T14:47:44.524Z,524
2022-11-17T14:53:15.101Z,534
2022-11-17T14:58:45.564Z,532
2022-11-17T15:04:48.447Z,531
2022-11-17T15:10:52.753Z,535
2022-11-17T15:16:23.241Z,547
2022-11-17T15:21:52.760Z,544
2022-11-17T15:27:23.162Z,545
2022-11-17T15:32:53.646Z,549
2022-11-17T15:38:23.132Z,540
2022-11-17T15:43:53.588Z,536
2022-11-17T15:49:24.084Z,537
2022-11-17T15:54:54.690Z,534
2022-11-17T16:00:25.162Z,537
2022-11-17T16:05:55.657Z,537
2022-11-17T16:11:26.193Z,530
2022-11-17T16:16:55.636Z,528
2022-11-17T16:22:26.138Z,529
2022-11-17T16:27:55.618Z,526
2022-11-17T16:33:26.088Z,527
2022-11-17T16:39:01.211Z,525
2022-11-17T16:44:27.223Z,528
2022-11-17T16:49:57.716Z,525
2022-11-17T16:55:28.238Z,526
2022-11-17T17:00:58.791Z,525
2022-11-17T17:06:29.308Z,519
2022-11-17T17:11:59.794Z,523
2022-11-17T17:17:30.277Z,524
2022-11-17T17:23:03.182Z,521
2022-11-17T17:28:31.321Z,521
2022-11-17T17:34:01.829Z,521
2022-11-17T17:39:32.398Z,524
2022-11-17T17:45:02.848Z,520
2022-11-17T17:50:32.385Z,526
2022-11-17T17:56:02.811Z,525
2022-11-17T18:01:33.288Z,527
2022-11-17T18:07:02.934Z,523
2022-11-17T18:12:33.266Z,524
2022-11-17T18:18:03.739Z,526
2022-11-17T18:23:33.273Z,517
2022-11-17T18:29:03.729Z,518
2022-11-17T18:34:34.206Z,524
2022-11-17T18:40:03.712Z,522
2022-11-17T18:45:34.193Z,522
2022-11-17T18:51:19.251Z,524
2022-11-17T18:56:35.276Z,528
2022-11-17T19:02:05.824Z,539
2022-11-17T19:07:36.382Z,550
2022-11-17T19:13:06.946Z,567
2022-11-17T19:18:37.379Z,586
2022-11-17T19:24:07.891Z,601
2022-11-17T19:29:38.569Z,616
2022-11-17T19:35:15.780Z,635
2022-11-17T19:40:39.519Z,638
2022-11-17T19:46:10.134Z,645
2022-11-17T19:51:40.552Z,642
2022-11-17T19:57:11.152Z,647
2022-11-17T20:02:41.657Z,632
2022-11-17T20:08:12.115Z,636
2022-11-17T20:13:41.615Z,633
2022-11-17T20:19:12.114Z,638
2022-11-17T20:24:41.718Z,645
2022-11-17T20:30:15.173Z,659
2022-11-17T20:35:41.696Z,669
2022-11-17T20:41:12.143Z,666
2022-11-17T20:46:42.624Z,667
2022-11-17T20:52:13.605Z,670
2022-11-17T20:57:43.700Z,692
2022-11-17T21:03:14.185Z,677
2022-11-17T21:08:44.848Z,693
2022-11-17T21:14:15.327Z,705
2022-11-17T21:19:45.694Z,718
2022-11-17T21:25:15.259Z,732
2022-11-17T21:30:45.725Z,747
2022-11-17T21:36:15.191Z,753
2022-11-17T21:41:45.699Z,761
2022-11-17T21:47:16.163Z,764
2022-11-17T21:52:46.624Z,773
2022-11-17T21:58:17.256Z,778
2022-11-17T22:03:47.696Z,775
2022-11-17T22:09:17.397Z,783
2022-11-17T22:14:47.707Z,789
2022-11-17T22:20:18.164Z,797
2022-11-17T22:25:48.747Z,801
2022-11-17T22:31:19.259Z,803
2022-11-17T22:36:49.704Z,809
2022-11-17T22:42:19.188Z,808
2022-11-17T22:47:49.688Z,812
2022-11-17T22:53:20.134Z,806
2022-11-17T22:59:56.835Z,808
2022-11-17T23:05:27.326Z,807
2022-11-17T23:11:21.765Z,814
2022-11-17T23:16:28.371Z,820
2022-11-17T23:21:58.873Z,820
2022-11-17T23:27:28.326Z,821
2022-11-17T23:32:58.825Z,833
2022-11-17T23:38:29.417Z,832
2022-11-17T23:43:58.771Z,832
2022-11-17T23:49:29.252Z,839
2022-11-17T23:54:59.762Z,837
